Enschede Airport Twente

EHTW · Overijssel, 荷兰

罗盘
风向 的 风向 170° Enschede Airport Twente 5/23
风: 4 kt, 2 beaufort

2 kt

4 kt
改变
0 1.000 2.000 3.000 4.000 5.000
CAVOK
METAR EDDG 261820Z AUTO 17004KT CAVOK 08/06 Q1028 NOSIG

METAR Enschede Airport Twente - EHTW/ENS

Enschede Airport Twente是,荷兰中的中型机场。 该机场有一条跑道: 5/23. 该领域的国际民航组织标志是EHTW 它的国际航空运输协会代码是ENS.

这份报告是针对2022年11月26日 19:20, 当地时间在Münster Osnabrück Airport进行的。

机场观察

风向为170°,速度为4 kt。

天气为CAVOK。这意味着在5.000 ft或MSA(最低安全高度)以下(以较高者为准)以下没有云。这也意味着没有观测到积雨云或高耸的积云,可见度为10 km 或者更多或更高。此外,不会有雾,降雨或其他重要天气。

温度为8 °C,阵风为5 °C。 露点为6 °C,相对湿度为87%。 海平面上的气压为1028 hPa (QNH)。

白天

今天,太阳从08:11升起,在16:27降落。 这适用于Enschede Airport Twente,世界夏令时可能有所不同。 当地时间与世界标准时间之间的时差为+1 小时。 当前,没有夏令时有效。

公司介绍

我们没有关于这个机场的公司信息。

体会

到Vliegles.nl去找飞行课程,跳伞和其他飞行体验。 浏览页面,了解Enschede Airport Twente附近所有可用的活动。 你也可以使用搜索功能来寻找你所在地附近的特定飞行课程、跳伞或其他飞行体验。

跑道

Id 标题 侧风 逆风 侧风 %
5/23 056°-236° 4 kt 2 kt 91 %

逆风成分最大的方向会被突出显示,并用于横风计算。 这并不一定意味着这个方向在使用。

温度 & 天气

温度 8 °C
露点 6 °C
相对湿度 87%
风寒 5 °C
Kp-index 0 (0-9)

白天

日出
08:07 (12:37)
中午
12:16
日落
16:25

小工具

你想在你的网站上有一个关于Enschede Airport Twente的当前航空天气(METAR)的小部件吗?

显示HTML代码

我们和第三方通过cookies跟踪您在我们网站上的互联网行为。如果你继续,我们认为你同意我们的饼干政策